Time;durP1;ratioP1;P1;durP2;ratioP2;P2;SDS_P1;SDS_P2;PMS_P1;PMS_P2;Temp;Humidity;BMP_temperature;BMP_pressure;BME280_temperature;BME280_humidity;BME280_pressure;Samples;Min_cycle;Max_cycle;Signal;HPM_P1;HPM_P2
2023/08/23 00:01:04;;;;;;;11.00;5.60;;;;;;;21.83;60.85;99497.48;105891;1253;69131;-63
2023/08/23 00:03:51;;;;;;;12.50;5.60;;;;;;;21.87;60.37;99488.59;105715;1253;73110;-62
2023/08/23 00:06:18;;;;;;;10.10;4.90;;;;;;;21.81;60.22;99485.16;105938;1254;61691;-66
2023/08/23 00:08:45;;;;;;;10.20;5.00;;;;;;;21.74;60.25;99486.84;105941;1253;62235;-66
2023/08/23 00:11:11;;;;;;;7.30;5.90;;;;;;;21.66;60.79;99489.02;105909;1257;75158;-63
2023/08/23 00:13:38;;;;;;;11.40;5.80;;;;;;;21.67;61.36;99489.98;105685;1254;69202;-64
2023/08/23 00:16:05;;;;;;;11.60;5.70;;;;;;;21.58;62.10;99488.53;105924;1257;73207;-66
2023/08/23 00:18:32;;;;;;;6.70;4.70;;;;;;;21.48;62.82;99482.29;105906;1252;61959;-64
2023/08/23 00:20:59;;;;;;;15.40;5.50;;;;;;;21.48;63.11;99480.48;105899;1256;61334;-67
2023/08/23 00:23:25;;;;;;;7.90;5.70;;;;;;;21.16;64.38;99477.74;105869;1257;75057;-61
2023/08/23 00:25:52;;;;;;;8.90;6.10;;;;;;;21.24;64.06;99472.23;105907;1253;69217;-66
2023/08/23 00:28:19;;;;;;;8.90;5.50;;;;;;;21.60;62.47;99467.31;105858;1257;72991;-67
2023/08/23 00:30:54;;;;;;;11.20;6.00;;;;;;;21.55;62.55;99469.59;105923;1253;62483;-65
2023/08/23 00:33:21;;;;;;;14.30;6.20;;;;;;;21.51;63.25;99474.70;105927;1254;61231;-65
2023/08/23 00:35:48;;;;;;;10.60;6.00;;;;;;;21.35;64.06;99463.95;105920;1257;75023;-62
2023/08/23 00:38:15;;;;;;;11.50;5.30;;;;;;;21.35;64.51;99456.59;105822;1253;69127;-64
2023/08/23 00:40:43;;;;;;;9.60;5.90;;;;;;;21.34;64.57;99461.73;105896;1254;73059;-64
2023/08/23 00:43:09;;;;;;;8.40;5.50;;;;;;;21.38;64.46;99466.52;105673;1253;62002;-66
2023/08/23 00:45:37;;;;;;;7.40;4.70;;;;;;;21.48;64.32;99466.39;105866;1253;61324;-65
2023/08/23 00:48:04;;;;;;;9.70;5.10;;;;;;;21.58;63.90;99464.66;105724;1259;75164;-65
2023/08/23 00:50:32;;;;;;;7.50;5.20;;;;;;;21.67;63.59;99455.81;105587;1254;69188;-63
2023/08/23 00:52:59;;;;;;;10.20;5.10;;;;;;;21.69;63.62;99455.19;105922;1254;73080;-65
2023/08/23 00:55:28;;;;;;;12.50;6.00;;;;;;;21.70;63.60;99463.16;105913;1253;61702;-64
2023/08/23 00:57:55;;;;;;;6.10;5.00;;;;;;;21.78;63.15;99472.56;105942;1254;61441;-65
2023/08/23 01:00:22;;;;;;;10.60;4.80;;;;;;;21.90;62.49;99468.48;105737;1256;74952;-64
2023/08/23 01:02:49;;;;;;;9.20;5.70;;;;;;;22.00;61.99;99467.40;105881;1256;68974;-65
2023/08/23 01:05:16;;;;;;;13.70;5.30;;;;;;;22.06;61.56;99469.33;105958;1251;73056;-63
2023/08/23 01:07:50;;;;;;;12.50;5.40;;;;;;;21.96;61.93;99471.35;105639;1258;61874;-67
2023/08/23 01:10:21;;;;;;;9.70;5.40;;;;;;;22.07;61.51;99467.58;105699;1259;61176;-63
2023/08/23 01:13:02;;;;;;;6.50;5.00;;;;;;;22.10;61.39;99468.62;105962;1256;74127;-64
2023/08/23 01:15:29;;;;;;;7.10;5.10;;;;;;;22.06;61.47;99460.44;105943;1251;69193;-66
2023/08/23 01:17:56;;;;;;;11.20;5.60;;;;;;;21.93;62.02;99459.70;105712;1251;71550;-63
2023/08/23 01:20:23;;;;;;;12.20;5.70;;;;;;;21.76;62.94;99451.00;105951;1251;61590;-61
2023/08/23 01:23:13;;;;;;;11.40;5.30;;;;;;;21.66;63.41;99450.23;105983;1251;61282;-65
2023/08/23 01:25:52;;;;;;;9.90;5.10;;;;;;;21.62;63.62;99451.39;105192;1259;74876;-64
2023/08/23 01:28:19;;;;;;;9.70;5.10;;;;;;;21.68;63.28;99446.23;105379;1260;68984;-65
2023/08/23 01:30:47;;;;;;;6.40;4.80;;;;;;;21.72;62.92;99444.86;105226;1262;73050;-63
2023/08/23 01:33:33;;;;;;;14.80;5.50;;;;;;;21.58;63.60;99436.27;105377;1260;61870;-65
2023/08/23 01:36:06;;;;;;;9.80;5.20;;;;;;;21.58;63.92;99435.48;105451;1260;61251;-64
2023/08/23 01:38:33;;;;;;;18.80;5.40;;;;;;;21.38;64.81;99445.83;105394;1263;74520;-65
2023/08/23 01:41:00;;;;;;;8.40;5.50;;;;;;;21.39;64.80;99450.00;105239;1260;69319;-63
2023/08/23 01:43:26;;;;;;;8.00;5.30;;;;;;;21.42;64.60;99457.32;105359;1261;72837;-65
2023/08/23 01:45:53;;;;;;;9.00;5.50;;;;;;;21.60;64.01;99467.45;105376;1260;61769;-64
2023/08/23 01:48:20;;;;;;;8.70;5.10;;;;;;;21.45;64.77;99465.76;105301;1260;61330;-64
2023/08/23 01:50:48;;;;;;;8.20;5.20;;;;;;;21.52;64.60;99457.40;105357;1261;75302;-67
2023/08/23 01:53:15;;;;;;;10.50;6.20;;;;;;;21.72;63.72;99441.94;105178;1267;68594;-66
2023/08/23 01:55:42;;;;;;;8.80;5.10;;;;;;;21.78;63.31;99436.25;105419;1260;72050;-62
2023/08/23 01:58:09;;;;;;;13.20;6.00;;;;;;;21.70;63.55;99431.48;105148;1260;61687;-65
2023/08/23 02:00:36;;;;;;;9.20;4.60;;;;;;;21.77;63.38;99429.98;105410;1264;61353;-65
2023/08/23 02:03:04;;;;;;;10.40;5.60;;;;;;;21.77;63.40;99430.52;105618;1256;75279;-63
2023/08/23 02:05:31;;;;;;;21.50;7.10;;;;;;;21.84;63.09;99435.85;105682;1251;68386;-62
2023/08/23 02:07:58;;;;;;;12.40;5.70;;;;;;;21.53;64.40;99437.20;105941;1251;73096;-65
2023/08/23 02:10:25;;;;;;;5.90;5.10;;;;;;;21.28;66.09;99433.46;105638;1260;62077;-66
2023/08/23 02:12:52;;;;;;;9.30;5.30;;;;;;;21.24;66.71;99434.16;105962;1251;62282;-69
2023/08/23 02:15:19;;;;;;;8.00;5.60;;;;;;;21.25;66.85;99439.27;105933;1253;75120;-65
2023/08/23 02:17:46;;;;;;;8.90;5.80;;;;;;;21.19;67.27;99443.93;105915;1251;68952;-63
2023/08/23 02:20:13;;;;;;;7.30;5.70;;;;;;;21.19;67.60;99440.27;105685;1257;73037;-65
2023/08/23 02:22:40;;;;;;;11.30;6.20;;;;;;;21.16;67.77;99449.92;105902;1251;61874;-66
2023/08/23 02:25:07;;;;;;;10.80;5.80;;;;;;;21.22;67.69;99457.48;105961;1251;61346;-64
2023/08/23 02:27:35;;;;;;;9.40;6.30;;;;;;;21.25;67.20;99456.59;105704;1251;74275;-65
2023/08/23 02:30:08;;;;;;;10.30;5.40;;;;;;;21.20;67.31;99453.34;105958;1251;68671;-63
2023/08/23 02:32:35;;;;;;;6.60;5.10;;;;;;;21.16;67.39;99453.89;105958;1251;72525;-64
2023/08/23 02:35:02;;;;;;;7.90;5.40;;;;;;;21.15;67.39;99450.63;105922;1251;61794;-66
2023/08/23 02:37:29;;;;;;;7.80;5.80;;;;;;;21.04;67.84;99450.42;105972;1256;61320;-66
2023/08/23 02:39:56;;;;;;;13.40;5.70;;;;;;;21.02;68.15;99458.89;106010;1251;75133;-65
2023/08/23 02:42:25;;;;;;;8.10;6.50;;;;;;;20.95;68.54;99464.17;105678;1251;68875;-65
2023/08/23 02:44:52;;;;;;;12.90;6.60;;;;;;;20.87;68.91;99470.80;105974;1251;73082;-63
2023/08/23 02:47:19;;;;;;;11.00;6.20;;;;;;;20.81;69.51;99477.98;105909;1251;61634;-65
2023/08/23 02:49:47;;;;;;;25.10;6.60;;;;;;;20.85;69.40;99476.30;105965;1251;61250;-64
2023/08/23 02:52:13;;;;;;;7.80;5.20;;;;;;;20.89;69.09;99471.79;105911;1255;75165;-64
2023/08/23 02:54:40;;;;;;;19.10;6.70;;;;;;;20.99;68.22;99458.64;105960;1251;69228;-64
2023/08/23 02:57:07;;;;;;;12.90;7.30;;;;;;;21.07;67.14;99447.66;105888;1251;72933;-66
2023/08/23 02:59:34;;;;;;;19.60;6.90;;;;;;;21.05;67.15;99447.90;105953;1251;61811;-64
2023/08/23 03:02:01;;;;;;;18.40;6.20;;;;;;;21.04;67.75;99447.12;105966;1251;61215;-63
2023/08/23 03:04:29;;;;;;;18.30;7.90;;;;;;;20.78;69.58;99472.10;105593;1260;74668;-66
2023/08/23 03:06:56;;;;;;;11.20;6.30;;;;;;;20.88;69.40;99471.09;105933;1251;69180;-63
2023/08/23 03:09:23;;;;;;;16.80;7.30;;;;;;;20.73;70.12;99463.99;105730;1253;73117;-62
2023/08/23 03:11:49;;;;;;;11.10;6.50;;;;;;;20.67;70.65;99460.91;105913;1251;61762;-66
2023/08/23 03:14:16;;;;;;;14.90;7.00;;;;;;;20.50;72.21;99466.48;105961;1251;62274;-63
2023/08/23 03:16:44;;;;;;;10.50;6.40;;;;;;;20.84;70.74;99468.53;105954;1256;75104;-64
2023/08/23 03:19:11;;;;;;;39.50;9.00;;;;;;;20.98;70.04;99462.23;105594;1251;68185;-67
2023/08/23 03:21:38;;;;;;;21.60;7.40;;;;;;;21.07;69.76;99458.58;105974;1251;72991;-61
2023/08/23 03:24:05;;;;;;;14.30;6.30;;;;;;;21.13;69.61;99459.65;105938;1251;61864;-65
2023/08/23 03:26:32;;;;;;;19.90;7.00;;;;;;;21.10;70.15;99455.81;105884;1252;62303;-66
2023/08/23 03:28:59;;;;;;;43.80;8.00;;;;;;;21.31;69.37;99451.27;105909;1255;75109;-63
2023/08/23 03:31:27;;;;;;;25.60;8.30;;;;;;;21.58;68.46;99446.93;105934;1251;69184;-64
2023/08/23 03:33:55;;;;;;;23.80;7.20;;;;;;;21.83;67.18;99440.27;105950;1256;72306;-62
2023/08/23 03:36:22;;;;;;;18.70;5.90;;;;;;;21.91;65.99;99445.58;105941;1251;61821;-65
2023/08/23 03:38:49;;;;;;;18.00;6.00;;;;;;;21.98;65.40;99444.81;105944;1253;62349;-67
2023/08/23 03:41:16;;;;;;;9.00;6.10;;;;;;;21.95;65.24;99445.48;105721;1257;74102;-65
2023/08/23 03:43:42;;;;;;;9.50;5.80;;;;;;;21.93;65.32;99445.23;105894;1253;68986;-64
2023/08/23 03:46:10;;;;;;;19.60;6.80;;;;;;;22.21;64.44;99454.27;105953;1253;73229;-64
2023/08/23 03:48:36;;;;;;;22.60;7.60;;;;;;;22.27;63.78;99459.14;105919;1253;61604;-67
2023/08/23 03:51:03;;;;;;;16.30;6.90;;;;;;;22.26;63.53;99462.27;105839;1256;61404;-64
2023/08/23 03:53:30;;;;;;;10.90;5.70;;;;;;;22.22;63.91;99465.81;105878;1257;74881;-63
2023/08/23 03:55:58;;;;;;;10.60;5.10;;;;;;;22.06;64.84;99459.58;105869;1253;69036;-63
2023/08/23 03:58:25;;;;;;;10.90;6.50;;;;;;;22.10;64.69;99457.44;105903;1253;72941;-62
2023/08/23 04:00:52;;;;;;;11.70;6.40;;;;;;;22.17;64.14;99453.27;105797;1256;61749;-71
2023/08/23 04:03:19;;;;;;;19.20;6.10;;;;;;;22.11;64.18;99448.04;105946;1252;61206;-63
2023/08/23 04:05:46;;;;;;;17.50;7.70;;;;;;;22.14;64.13;99441.43;105884;1256;75294;-65
2023/08/23 04:08:14;;;;;;;44.90;10.90;;;;;;;22.30;64.12;99446.36;105882;1253;69148;-65
2023/08/23 04:10:46;;;;;;;46.30;14.30;;;;;;;22.61;63.47;99450.36;105904;1253;72947;-63
2023/08/23 04:13:13;;;;;;;35.70;16.30;;;;;;;22.86;61.92;99464.50;105901;1256;61334;-66
2023/08/23 04:15:44;;;;;;;20.80;7.00;;;;;;;22.92;60.66;99474.21;105901;1255;61942;-63
2023/08/23 04:18:11;;;;;;;14.70;6.50;;;;;;;23.16;59.69;99474.96;105891;1255;75190;-67
2023/08/23 04:20:38;;;;;;;13.90;7.70;;;;;;;22.87;60.55;99473.07;105783;1253;68112;-67
2023/08/23 04:23:05;;;;;;;25.20;7.00;;;;;;;22.91;59.74;99472.98;105777;1254;73148;-69
2023/08/23 04:25:32;;;;;;;26.30;6.90;;;;;;;22.85;60.07;99469.31;105898;1253;61836;-69
2023/08/23 04:27:59;;;;;;;16.40;5.50;;;;;;;23.14;59.30;99474.09;105723;1253;61345;-65
2023/08/23 04:30:26;;;;;;;13.30;5.60;;;;;;;23.37;58.14;99472.43;105962;1253;75009;-66
2023/08/23 04:32:55;;;;;;;8.40;4.70;;;;;;;23.47;57.41;99472.43;105971;1253;68457;-66
2023/08/23 04:35:22;;;;;;;14.70;5.90;;;;;;;23.29;57.65;99470.91;105913;1253;73173;-64
2023/08/23 04:37:49;;;;;;;11.20;4.90;;;;;;;23.49;57.81;99478.07;105923;1253;61744;-65
2023/08/23 04:40:17;;;;;;;14.30;5.30;;;;;;;23.90;56.02;99480.80;105686;1253;61335;-66
2023/08/23 04:42:44;;;;;;;9.80;5.00;;;;;;;23.85;56.17;99482.13;105910;1251;75201;-66
2023/08/23 04:45:11;;;;;;;10.80;4.70;;;;;;;23.84;56.09;99494.00;105801;1251;69171;-69
2023/08/23 04:47:37;;;;;;;9.30;4.70;;;;;;;23.81;56.38;99489.60;106012;1251;73059;-65
2023/08/23 04:50:05;;;;;;;17.70;5.40;;;;;;;23.86;56.33;99487.87;105720;1254;62062;-65
2023/08/23 04:52:32;;;;;;;26.10;5.30;;;;;;;23.72;56.47;99481.08;105796;1253;62256;-66
2023/08/23 04:55:00;;;;;;;11.40;4.70;;;;;;;23.56;56.56;99479.56;105767;1256;75087;-68
2023/08/23 04:57:27;;;;;;;14.10;4.80;;;;;;;23.54;56.83;99480.65;106040;1251;69098;-64
2023/08/23 04:59:54;;;;;;;13.90;5.60;;;;;;;24.26;55.47;99480.70;105787;1253;73149;-66
2023/08/23 05:02:21;;;;;;;21.60;6.40;;;;;;;25.33;52.15;99480.78;105844;1252;61759;-68
2023/08/23 05:04:48;;;;;;;8.40;4.10;;;;;;;25.61;49.54;99482.35;105959;1251;62321;-67
2023/08/23 05:07:16;;;;;;;11.90;5.40;;;;;;;25.55;49.61;99484.27;105580;1261;74382;-67
2023/08/23 05:09:43;;;;;;;17.90;5.90;;;;;;;25.85;48.43;99488.51;105571;1257;69233;-66
2023/08/23 05:12:10;;;;;;;12.60;4.90;;;;;;;25.70;49.06;99486.58;105615;1256;73234;-66
2023/08/23 05:14:37;;;;;;;9.80;4.80;;;;;;;25.64;49.12;99490.36;105547;1257;62320;-67
2023/08/23 05:17:03;;;;;;;18.40;6.40;;;;;;;25.61;49.26;99491.31;105553;1257;61444;-65
2023/08/23 05:19:30;;;;;;;11.60;5.80;;;;;;;25.42;49.38;99498.62;105529;1260;75110;-67
2023/08/23 05:21:57;;;;;;;13.60;5.80;;;;;;;25.15;50.41;99498.87;105568;1257;69020;-65
2023/08/23 05:24:24;;;;;;;11.50;3.90;;;;;;;25.37;50.10;99499.44;105537;1257;73147;-65
2023/08/23 05:26:51;;;;;;;12.90;3.90;;;;;;;25.54;49.83;99494.91;105947;1251;61896;-72
2023/08/23 05:29:18;;;;;;;8.50;4.50;;;;;;;25.72;49.22;99493.69;105691;1251;61337;-65
2023/08/23 05:31:45;;;;;;;8.10;4.60;;;;;;;26.37;47.50;99499.17;105828;1256;75050;-68
2023/08/23 05:34:12;;;;;;;7.30;4.30;;;;;;;26.33;47.19;99499.46;105977;1251;69002;-67
2023/08/23 05:36:40;;;;;;;9.50;4.20;;;;;;;26.74;46.67;99493.48;105961;1257;73110;-64
2023/08/23 05:39:09;;;;;;;8.40;4.10;;;;;;;26.90;45.50;99488.83;105666;1253;61901;-66
2023/08/23 05:41:36;;;;;;;23.10;5.40;;;;;;;26.80;45.51;99487.78;105692;1254;61400;-66
2023/08/23 05:44:03;;;;;;;16.70;5.60;;;;;;;26.74;46.53;99491.90;105627;1258;75035;-66
2023/08/23 05:46:30;;;;;;;15.10;5.50;;;;;;;27.02;45.71;99493.05;105594;1254;68645;-64
2023/08/23 05:48:57;;;;;;;15.30;6.20;;;;;;;26.99;45.34;99490.64;105783;1254;73118;-72
2023/08/23 05:51:24;;;;;;;13.50;6.00;;;;;;;26.99;45.23;99482.38;105937;1252;61944;-68
2023/08/23 05:53:51;;;;;;;16.70;5.60;;;;;;;27.18;44.95;99480.29;105879;1253;61346;-66
2023/08/23 05:56:18;;;;;;;24.50;5.90;;;;;;;27.32;44.16;99484.71;105925;1256;75089;-66
2023/08/23 05:58:44;;;;;;;12.00;4.30;;;;;;;27.35;44.43;99487.75;105615;1253;69119;-65
2023/08/23 06:01:12;;;;;;;10.70;4.50;;;;;;;27.42;44.06;99487.56;105903;1257;73215;-68
2023/08/23 06:03:39;;;;;;;16.10;5.70;;;;;;;27.41;43.93;99490.45;105902;1257;61302;-68
2023/08/23 06:06:06;;;;;;;8.70;4.90;;;;;;;27.28;44.21;99485.91;105894;1253;61224;-71
2023/08/23 06:08:33;;;;;;;14.40;4.40;;;;;;;27.50;43.72;99485.80;105830;1257;75080;-70
2023/08/23 06:11:00;;;;;;;17.20;6.10;;;;;;;28.07;42.58;99486.34;106273;1254;69149;-68
2023/08/23 06:13:27;;;;;;;16.60;8.00;;;;;;;28.27;42.00;99491.75;106800;1253;73082;-68
2023/08/23 06:15:54;;;;;;;14.00;7.80;;;;;;;28.06;41.90;99494.77;106556;1253;61228;-67
2023/08/23 06:18:21;;;;;;;15.30;9.10;;;;;;;27.99;42.56;99496.57;106288;1253;61231;-67
2023/08/23 06:20:49;;;;;;;18.60;7.90;;;;;;;28.94;41.47;99499.33;105943;1257;74973;-68
2023/08/23 06:23:16;;;;;;;23.10;4.70;;;;;;;30.19;39.42;99490.56;105926;1253;69506;-71
2023/08/23 06:25:43;;;;;;;13.70;4.20;;;;;;;30.73;38.30;99494.60;105897;1253;72820;-69
2023/08/23 06:28:10;;;;;;;13.20;3.70;;;;;;;31.00;37.48;99500.16;105854;1253;62275;-74
2023/08/23 06:30:56;;;;;;;30.40;5.20;;;;;;;31.22;36.83;99497.09;105452;1259;61284;-69
2023/08/23 06:33:25;;;;;;;13.90;2.80;;;;;;;31.07;36.64;99498.02;105475;1259;73451;-67
2023/08/23 06:35:52;;;;;;;;;;;;;;;30.79;36.82;99504.35;105484;1259;69149;-72
2023/08/23 06:38:30;;;;;;;61.10;7.70;;;;;;;30.45;36.56;99504.31;105472;1261;72554;-68
2023/08/23 06:41:02;;;;;;;8.80;2.80;;;;;;;30.49;36.61;99507.34;105133;1265;61347;-66
2023/08/23 06:43:33;;;;;;;48.50;5.20;;;;;;;30.41;36.39;99509.35;105164;1264;61241;-68
2023/08/23 06:46:01;;;;;;;10.90;3.60;;;;;;;29.92;36.95;99517.44;105065;1268;74854;-67
2023/08/23 06:48:37;;;;;;;10.50;3.10;;;;;;;29.85;37.57;99513.84;105143;1264;69257;-68
2023/08/23 06:51:05;;;;;;;12.40;3.50;;;;;;;29.91;37.14;99518.85;105131;1264;73242;-68
2023/08/23 06:53:49;;;;;;;11.50;3.30;;;;;;;30.05;37.53;99523.23;105112;1263;61453;-66
2023/08/23 06:56:30;;;;;;;6.90;2.90;;;;;;;30.08;37.13;99523.15;105135;1265;61399;-67
2023/08/23 06:59:12;;;;;;;8.70;3.00;;;;;;;29.97;36.23;99523.00;105265;1267;74985;-71
2023/08/23 07:01:40;;;;;;;;;;;;;;;30.15;35.99;99524.54;105763;1252;69386;-68
2023/08/23 07:04:10;;;;;;;17.60;3.80;;;;;;;30.42;35.50;99518.45;106012;1251;73598;-68
2023/08/23 07:06:41;;;;;;;5.00;2.10;;;;;;;30.61;35.58;99524.86;105625;1260;61503;-63
2023/08/23 07:09:16;;;;;;;9.10;2.80;;;;;;;30.54;34.68;99527.77;105566;1260;61296;-68
2023/08/23 07:11:47;;;;;;;6.90;2.50;;;;;;;30.48;35.13;99523.78;105555;1257;72708;-68
2023/08/23 07:14:18;;;;;;;15.50;3.00;;;;;;;30.79;34.60;99527.39;105585;1257;68392;-67
2023/08/23 07:17:07;;;;;;;13.40;3.10;;;;;;;30.94;34.10;99527.69;105625;1257;73051;-63
2023/08/23 07:19:59;;;;;;;9.50;2.80;;;;;;;31.33;34.53;99531.08;105224;1257;61389;-67
2023/08/23 07:22:28;;;;;;;8.40;2.60;;;;;;;31.58;33.80;99530.64;105573;1257;61218;-66
2023/08/23 07:24:56;;;;;;;8.60;2.30;;;;;;;31.99;32.66;99531.73;105420;1259;75208;-67
2023/08/23 07:27:37;;;;;;;9.20;2.20;;;;;;;32.29;32.09;99530.48;105529;1257;61396;-67
2023/08/23 07:30:07;;;;;;;9.20;2.20;;;;;;;32.56;31.08;99529.27;105633;1257;63814;-66
2023/08/23 07:32:36;;;;;;;6.50;2.40;;;;;;;32.85;29.92;99532.56;105292;1260;61529;-66
2023/08/23 07:35:04;;;;;;;6.10;2.00;;;;;;;32.99;29.78;99534.33;105602;1257;61317;-64
2023/08/23 07:37:31;;;;;;;5.80;2.30;;;;;;;33.07;30.15;99533.80;105256;1263;65850;-67
2023/08/23 07:39:58;;;;;;;3.50;1.60;;;;;;;33.26;29.55;99538.52;105542;1257;61367;-67
2023/08/23 07:42:27;;;;;;;2.80;1.50;;;;;;;33.62;28.53;99536.29;105493;1262;63923;-68
2023/08/23 07:44:54;;;;;;;2.80;1.70;;;;;;;33.39;28.06;99540.13;105270;1256;61509;-70
2023/08/23 07:47:21;;;;;;;5.40;1.90;;;;;;;33.24;27.62;99537.20;105620;1257;61343;-69
2023/08/23 07:49:55;;;;;;;6.40;1.70;;;;;;;33.16;27.46;99531.84;105630;1259;65569;-67
2023/08/23 07:52:22;;;;;;;4.60;2.40;;;;;;;33.41;27.54;99530.08;105592;1257;61351;-68
2023/08/23 07:54:49;;;;;;;6.80;1.50;;;;;;;33.40;27.16;99534.30;105585;1257;63797;-68
2023/08/23 07:57:17;;;;;;;7.40;1.90;;;;;;;33.22;28.00;99535.23;105580;1257;61342;-67
2023/08/23 07:59:43;;;;;;;6.00;1.70;;;;;;;33.21;28.24;99532.92;105959;1251;61244;-67
2023/08/23 08:02:11;;;;;;;4.20;1.30;;;;;;;32.75;28.04;99531.33;105933;1251;65849;-67
2023/08/23 08:04:38;;;;;;;3.50;1.70;;;;;;;32.62;28.19;99524.10;105695;1253;61285;-68
2023/08/23 08:07:05;;;;;;;6.10;2.40;;;;;;;32.81;28.56;99529.80;105980;1255;64019;-68
2023/08/23 08:09:31;;;;;;;4.20;1.50;;;;;;;33.44;27.87;99528.70;105956;1251;61247;-71
2023/08/23 08:11:58;;;;;;;4.20;1.70;;;;;;;33.63;27.51;99534.84;105935;1251;61237;-68
2023/08/23 08:14:25;;;;;;;6.80;1.70;;;;;;;33.95;26.86;99536.70;105958;1255;65670;-67
2023/08/23 08:16:52;;;;;;;11.00;3.00;;;;;;;33.96;26.97;99538.21;105986;1251;62408;-69
2023/08/23 08:19:19;;;;;;;6.20;1.50;;;;;;;33.88;27.26;99534.79;105929;1251;63815;-67
2023/08/23 08:21:46;;;;;;;5.70;1.50;;;;;;;34.17;26.56;99531.96;105967;1251;61287;-68
2023/08/23 08:24:12;;;;;;;2.60;1.40;;;;;;;34.17;26.69;99526.32;105945;1251;61326;-66
2023/08/23 08:26:39;;;;;;;4.50;1.90;;;;;;;34.30;26.66;99522.52;105974;1256;65871;-66
2023/08/23 08:29:06;;;;;;;3.70;2.00;;;;;;;34.34;27.04;99517.93;105947;1251;62417;-71
2023/08/23 08:31:33;;;;;;;8.80;2.10;;;;;;;34.45;27.00;99524.88;105981;1251;63920;-68
2023/08/23 08:34:00;;;;;;;9.20;2.10;;;;;;;34.03;26.62;99525.33;105690;1254;61386;-66
2023/08/23 08:36:27;;;;;;;7.40;2.20;;;;;;;33.86;26.90;99526.05;105959;1251;61249;-68
2023/08/23 08:38:54;;;;;;;7.80;1.90;;;;;;;33.88;26.77;99521.90;105958;1255;65877;-67
2023/08/23 08:41:21;;;;;;;6.90;3.00;;;;;;;33.98;26.68;99521.48;105845;1255;157920;-66
2023/08/23 08:43:48;;;;;;;8.40;3.00;;;;;;;34.32;26.32;99519.39;105963;1251;63897;-67
2023/08/23 08:46:15;;;;;;;5.70;2.40;;;;;;;34.62;25.95;99518.25;106007;1251;62384;-68
2023/08/23 08:48:42;;;;;;;31.40;22.90;;;;;;;34.31;26.04;99512.79;105809;1254;61263;-68
2023/08/23 08:51:10;;;;;;;11.40;7.80;;;;;;;33.60;26.96;99515.45;105955;1251;65831;-66
2023/08/23 08:53:38;;;;;;;45.50;38.40;;;;;;;33.53;27.07;99517.91;105872;1251;62424;-66
2023/08/23 08:56:04;;;;;;;9.30;5.30;;;;;;;33.73;26.74;99514.27;105982;1251;63904;-67
2023/08/23 08:58:31;;;;;;;7.80;3.00;;;;;;;34.06;26.28;99517.13;105859;1251;61214;-69
2023/08/23 09:00:58;;;;;;;9.20;3.30;;;;;;;34.25;26.18;99517.39;105929;1251;61261;-68
2023/08/23 09:03:26;;;;;;;7.50;2.10;;;;;;;34.30;25.89;99518.38;105985;1255;65907;-67
2023/08/23 09:05:53;;;;;;;;;;;;;;;34.18;26.13;99516.84;105994;1256;62379;-65
2023/08/23 09:08:20;;;;;;;6.60;2.10;;;;;;;34.09;26.45;99513.27;105958;1255;63948;-68
2023/08/23 09:10:46;;;;;;;13.10;10.80;;;;;;;33.92;26.77;99508.89;105735;1258;61199;-71
2023/08/23 09:13:13;;;;;;;6.40;4.90;;;;;;;33.55;27.04;99500.09;105944;1251;61343;-66
2023/08/23 09:15:40;;;;;;;15.10;4.90;;;;;;;33.50;27.48;99497.66;105721;1257;65984;-67
2023/08/23 09:18:36;;;;;;;9.50;3.90;;;;;;;33.49;27.28;99501.65;106006;1253;61355;-75
2023/08/23 09:21:03;;;;;;;10.20;4.60;;;;;;;33.49;27.34;99498.55;105479;1251;64145;-65
2023/08/23 09:23:34;;;;;;;10.50;5.40;;;;;;;34.14;26.86;99494.90;105911;1253;61142;-69
2023/08/23 09:26:01;;;;;;;5.30;2.20;;;;;;;34.59;26.42;99495.48;105947;1253;61214;-71
2023/08/23 09:28:29;;;;;;;3.50;1.30;;;;;;;35.14;26.26;99495.28;105936;1256;66358;-67
2023/08/23 09:30:55;;;;;;;13.20;9.80;;;;;;;35.35;25.78;99494.50;105834;1254;61436;-66
2023/08/23 09:33:23;;;;;;;6.20;2.20;;;;;;;35.18;25.41;99489.19;105633;1253;64013;-68
2023/08/23 09:35:51;;;;;;;7.30;1.50;;;;;;;34.95;25.52;99486.81;105925;1253;62358;-67
2023/08/23 09:38:19;;;;;;;7.00;2.20;;;;;;;34.53;25.76;99484.51;105961;1254;61347;-67
2023/08/23 09:40:49;;;;;;;4.10;1.90;;;;;;;33.22;27.04;99484.95;105949;1256;65945;-74
2023/08/23 09:43:16;;;;;;;4.00;1.60;;;;;;;32.74;27.77;99485.78;105922;1253;61324;-67
2023/08/23 09:45:44;;;;;;;4.60;2.20;;;;;;;32.85;27.61;99482.23;105894;1253;64023;-69
2023/08/23 09:48:11;;;;;;;7.30;2.40;;;;;;;33.01;27.64;99485.92;105895;1253;62313;-68
2023/08/23 09:50:38;;;;;;;5.20;2.00;;;;;;;33.50;27.23;99487.73;105960;1252;61279;-66
2023/08/23 09:53:33;;;;;;;12.20;5.60;;;;;;;33.97;26.83;99485.53;105881;1257;65885;-68
2023/08/23 09:56:02;;;;;;;6.10;2.30;;;;;;;34.11;26.29;99476.34;105890;1253;61311;-68
2023/08/23 09:58:29;;;;;;;6.00;1.90;;;;;;;34.03;26.19;99476.23;105883;1253;63598;-67
2023/08/23 10:00:56;;;;;;;5.80;1.70;;;;;;;34.13;25.92;99475.83;105695;1258;62239;-68
2023/08/23 10:03:23;;;;;;;4.90;1.70;;;;;;;34.32;25.57;99475.85;105857;1253;61350;-69
2023/08/23 10:05:50;;;;;;;10.40;2.30;;;;;;;34.17;25.49;99473.79;105707;1260;65701;-69
2023/08/23 10:08:17;;;;;;;3.40;2.40;;;;;;;34.54;25.48;99473.98;105908;1253;61403;-69
2023/08/23 10:10:45;;;;;;;7.50;2.70;;;;;;;35.00;25.55;99470.55;105862;1253;63957;-70
2023/08/23 10:13:12;;;;;;;7.50;2.50;;;;;;;34.84;25.22;99472.14;105885;1253;61231;-70
2023/08/23 10:15:39;;;;;;;4.10;2.00;;;;;;;34.95;24.90;99469.77;105815;1253;61312;-68
2023/08/23 10:18:09;;;;;;;6.80;3.50;;;;;;;34.57;25.23;99477.03;105939;1257;65793;-68
2023/08/23 10:20:36;;;;;;;6.40;2.30;;;;;;;34.35;25.91;99474.54;105928;1253;61356;-68
2023/08/23 10:23:32;;;;;;;9.70;3.70;;;;;;;33.89;26.26;99471.14;105887;1253;63756;-68
2023/08/23 10:25:59;;;;;;;5.80;1.70;;;;;;;33.93;26.77;99467.54;105864;1254;61415;-68
2023/08/23 10:28:27;;;;;;;12.20;4.30;;;;;;;33.98;26.69;99466.20;105910;1253;61382;-67
2023/08/23 10:30:57;;;;;;;5.70;1.80;;;;;;;34.47;26.26;99462.93;105581;1259;66147;-68
2023/08/23 10:33:39;;;;;;;6.70;2.00;;;;;;;34.55;25.60;99465.14;105518;1257;62506;-68
2023/08/23 10:36:06;;;;;;;4.50;2.10;;;;;;;34.00;25.79;99460.11;105486;1260;63939;-66
2023/08/23 10:38:33;;;;;;;3.90;1.80;;;;;;;33.90;25.72;99462.15;105467;1257;62523;-66
2023/08/23 10:41:01;;;;;;;7.00;1.90;;;;;;;34.16;25.62;99456.00;105536;1257;61298;-69
2023/08/23 10:43:30;;;;;;;2.30;1.70;;;;;;;34.33;25.62;99454.35;105491;1259;66100;-67
2023/08/23 10:46:06;;;;;;;14.30;4.50;;;;;;;34.19;25.72;99447.02;105858;1257;61330;-70
2023/08/23 10:48:33;;;;;;;6.00;2.90;;;;;;;33.27;26.88;99443.02;105626;1257;62524;-73
2023/08/23 10:50:59;;;;;;;2.50;1.70;;;;;;;33.22;26.80;99444.08;105221;1257;61294;-69
2023/08/23 10:53:27;;;;;;;4.90;2.20;;;;;;;33.35;26.57;99441.11;105597;1262;61199;-66
2023/08/23 10:55:55;;;;;;;8.30;2.10;;;;;;;33.94;26.09;99437.46;105277;1264;66351;-67
2023/08/23 10:58:22;;;;;;;6.10;2.40;;;;;;;34.51;25.35;99434.92;105553;1257;62436;-66
2023/08/23 11:00:53;;;;;;;4.90;1.70;;;;;;;34.83;25.14;99437.11;105647;1254;63669;-72
2023/08/23 11:03:20;;;;;;;11.30;4.30;;;;;;;34.36;25.78;99431.15;105656;1254;61336;-69
2023/08/23 11:05:47;;;;;;;;;;;;;;;34.59;25.30;99430.30;105690;1254;61253;-66
2023/08/23 11:08:14;;;;;;;8.60;2.40;;;;;;;34.54;25.55;99429.95;105913;1255;65618;-68
2023/08/23 11:10:42;;;;;;;;;;;;;;;34.61;25.51;99430.28;105971;1254;61334;-73
2023/08/23 11:13:09;;;;;;;4.50;2.40;;;;;;;34.77;25.09;99431.00;105985;1252;63817;-67
2023/08/23 11:15:36;;;;;;;15.80;2.60;;;;;;;34.93;24.85;99434.66;105965;1256;61327;-67
2023/08/23 11:18:03;;;;;;;10.50;2.10;;;;;;;34.97;24.64;99436.98;105935;1254;61252;-68
2023/08/23 11:20:31;;;;;;;6.60;1.90;;;;;;;34.93;24.10;99435.29;105691;1251;67189;-67
2023/08/23 11:22:58;;;;;;;;;;;;;;;34.53;24.55;99438.96;105863;1251;61300;-67
2023/08/23 11:25:25;;;;;;;7.80;2.10;;;;;;;34.64;24.68;99438.90;105956;1251;63727;-69
2023/08/23 11:27:52;;;;;;;5.30;2.00;;;;;;;34.58;25.10;99438.10;105733;1253;61482;-67